EWG2PY EDDK-LDSP
Flight info
| Callsign | EWG2PY |
|---|---|
| Flight time | 1h 38m |
| Altitude | 35000 |
| Route | KUMIK8F/13L KUMIK L603 TESGA DCT ESATI DCT DETEV DCT DINKU M867 XERUM DCT BAVAX DCT RADIZ DCT ALIVO DCT NUPSO |
| Aircraft | A320/M-SDE3FGHIRWY/LB1 |
Departure
| Time | 2026-04-30 18:21 |
|---|---|
| Airport | Cologne Bonn Airport (EDDK) |
Arrival
| Time | 2026-04-30 19:59 |
|---|---|
| Airport | Split Saint Jerome Airport (LDSP) |
| Time | Latitude | Longitude | Altitude | Speed | Heading |
|---|---|---|---|---|---|
| 2026-04-30 18:06 | 50.86214 | 7.12009 | 235 ft | 0 kts | 210° |
| 2026-04-30 18:14 | 50.86223 | 7.12018 | 232 ft | 2 kts | 210° |
| 2026-04-30 18:15 | 50.86267 | 7.12062 | 234 ft | 2 kts | 223° |
| 2026-04-30 18:15 | 50.86303 | 7.12121 | 236 ft | 2 kts | 244° |
| 2026-04-30 18:16 | 50.86318 | 7.12170 | 236 ft | 3 kts | 240° |
| 2026-04-30 18:16 | 50.86334 | 7.12218 | 235 ft | 2 kts | 238° |
| 2026-04-30 18:17 | 50.86344 | 7.12241 | 233 ft | 3 kts | 253° |
| 2026-04-30 18:17 | 50.86349 | 7.12268 | 233 ft | 3 kts | 235° |
| 2026-04-30 18:17 | 50.86359 | 7.12289 | 235 ft | 1 kts | 184° |
| 2026-04-30 18:18 | 50.86356 | 7.12289 | 235 ft | 0 kts | 183° |
| 2026-04-30 18:18 | 50.86349 | 7.12288 | 235 ft | 1 kts | 183° |
| 2026-04-30 18:18 | 50.86332 | 7.12293 | 233 ft | 6 kts | 168° |
| 2026-04-30 18:19 | 50.86216 | 7.12342 | 233 ft | 19 kts | 171° |
| 2026-04-30 18:19 | 50.86154 | 7.12355 | 237 ft | 4 kts | 169° |
| 2026-04-30 18:19 | 50.86140 | 7.12359 | 241 ft | 2 kts | 169° |
| 2026-04-30 18:19 | 50.86073 | 7.12384 | 239 ft | 18 kts | 164° |
| 2026-04-30 18:20 | 50.86054 | 7.12497 | 239 ft | 16 kts | 67° |
| 2026-04-30 18:20 | 50.86209 | 7.13032 | 249 ft | 94 kts | 64° |
| 2026-04-30 18:20 | 50.86596 | 7.14336 | 275 ft | 162 kts | 68° |
| 2026-04-30 18:20 | 50.87129 | 7.16116 | 621 ft | 191 kts | 66° |
| 2026-04-30 18:21 | 50.87750 | 7.18123 | 1004 ft | 216 kts | 65° |
| 2026-04-30 18:21 | 50.88466 | 7.20371 | 1445 ft | 240 kts | 65° |
| 2026-04-30 18:21 | 50.89243 | 7.22797 | 2167 ft | 246 kts | 67° |
| 2026-04-30 18:21 | 50.89953 | 7.25244 | 2971 ft | 245 kts | 69° |
| 2026-04-30 18:22 | 50.90645 | 7.27730 | 4006 ft | 246 kts | 70° |
| 2026-04-30 18:22 | 50.92056 | 7.32812 | 5707 ft | 256 kts | 73° |
| 2026-04-30 18:22 | 50.92471 | 7.35539 | 6574 ft | 255 kts | 87° |
| 2026-04-30 18:23 | 50.92451 | 7.38328 | 7387 ft | 257 kts | 101° |
| 2026-04-30 18:23 | 50.92114 | 7.41144 | 8235 ft | 259 kts | 102° |
| 2026-04-30 18:23 | 50.91884 | 7.43006 | 8788 ft | 261 kts | 102° |
| 2026-04-30 18:23 | 50.91529 | 7.45847 | 9599 ft | 264 kts | 102° |
| 2026-04-30 18:24 | 50.90791 | 7.51695 | 10763 ft | 286 kts | 101° |
| 2026-04-30 18:24 | 50.90385 | 7.54907 | 10967 ft | 309 kts | 101° |
| 2026-04-30 18:24 | 50.89947 | 7.58365 | 11224 ft | 328 kts | 101° |
| 2026-04-30 18:25 | 50.89496 | 7.61950 | 11793 ft | 335 kts | 101° |
| 2026-04-30 18:25 | 50.88576 | 7.69278 | 13140 ft | 343 kts | 101° |
| 2026-04-30 18:25 | 50.88109 | 7.72951 | 13789 ft | 347 kts | 101° |
| 2026-04-30 18:26 | 50.87134 | 7.80533 | 14994 ft | 354 kts | 100° |
| 2026-04-30 18:26 | 50.86587 | 7.84368 | 15582 ft | 358 kts | 107° |
| 2026-04-30 18:26 | 50.85579 | 7.87994 | 16174 ft | 363 kts | 115° |
| 2026-04-30 18:27 | 50.82428 | 7.94402 | 17311 ft | 373 kts | 128° |
| 2026-04-30 18:27 | 50.80705 | 7.97504 | 17890 ft | 377 kts | 128° |
| 2026-04-30 18:28 | 50.77219 | 8.03736 | 18986 ft | 384 kts | 128° |
| 2026-04-30 18:28 | 50.75452 | 8.06897 | 19497 ft | 387 kts | 128° |
| 2026-04-30 18:28 | 50.71863 | 8.13325 | 20525 ft | 392 kts | 128° |
| 2026-04-30 18:29 | 50.70050 | 8.16572 | 21029 ft | 395 kts | 128° |
| 2026-04-30 18:29 | 50.64543 | 8.26409 | 22486 ft | 402 kts | 128° |
| 2026-04-30 18:30 | 50.60811 | 8.33061 | 23388 ft | 407 kts | 128° |
| 2026-04-30 18:30 | 50.57021 | 8.39777 | 24224 ft | 412 kts | 128° |
| 2026-04-30 18:31 | 50.55112 | 8.43160 | 24564 ft | 415 kts | 128° |
| 2026-04-30 18:31 | 50.51263 | 8.49977 | 25248 ft | 419 kts | 128° |
| 2026-04-30 18:32 | 50.47360 | 8.56860 | 25897 ft | 424 kts | 128° |
| 2026-04-30 18:32 | 50.45394 | 8.60316 | 26217 ft | 426 kts | 128° |
| 2026-04-30 18:32 | 50.41307 | 8.67038 | 26839 ft | 432 kts | 132° |
| 2026-04-30 18:33 | 50.39126 | 8.70304 | 27149 ft | 434 kts | 133° |
| 2026-04-30 18:33 | 50.34681 | 8.76772 | 27741 ft | 438 kts | 133° |
| 2026-04-30 18:33 | 50.32445 | 8.80046 | 28029 ft | 440 kts | 133° |
| 2026-04-30 18:34 | 50.30218 | 8.83344 | 28296 ft | 442 kts | 133° |
| 2026-04-30 18:34 | 50.25764 | 8.90025 | 28842 ft | 445 kts | 132° |
| 2026-04-30 18:34 | 50.23528 | 8.93388 | 29089 ft | 447 kts | 132° |
| 2026-04-30 18:35 | 50.21281 | 8.96758 | 29335 ft | 448 kts | 132° |
| 2026-04-30 18:35 | 50.19021 | 9.00138 | 29564 ft | 450 kts | 132° |
| 2026-04-30 18:35 | 50.16752 | 9.03519 | 29806 ft | 451 kts | 132° |
| 2026-04-30 18:36 | 50.12208 | 9.10266 | 30468 ft | 449 kts | 132° |
| 2026-04-30 18:36 | 50.09943 | 9.13619 | 30740 ft | 449 kts | 132° |
| 2026-04-30 18:36 | 50.05407 | 9.20314 | 31238 ft | 448 kts | 132° |
| 2026-04-30 18:37 | 50.03174 | 9.23616 | 31500 ft | 448 kts | 132° |
| 2026-04-30 18:37 | 50.00891 | 9.26998 | 31765 ft | 448 kts | 132° |
| 2026-04-30 18:37 | 49.98668 | 9.30286 | 32024 ft | 448 kts | 132° |
| 2026-04-30 18:37 | 49.96406 | 9.33618 | 32283 ft | 448 kts | 132° |
| 2026-04-30 18:38 | 49.94139 | 9.36948 | 32536 ft | 447 kts | 132° |
| 2026-04-30 18:38 | 49.91880 | 9.40264 | 32797 ft | 447 kts | 132° |
| 2026-04-30 18:38 | 49.89615 | 9.43588 | 33051 ft | 447 kts | 132° |
| 2026-04-30 18:38 | 49.87643 | 9.46483 | 33275 ft | 447 kts | 132° |
| 2026-04-30 18:39 | 49.85382 | 9.49794 | 33531 ft | 447 kts | 132° |
| 2026-04-30 18:39 | 49.83117 | 9.53101 | 33787 ft | 447 kts | 132° |
| 2026-04-30 18:39 | 49.80852 | 9.56402 | 34041 ft | 447 kts | 132° |
| 2026-04-30 18:39 | 49.78581 | 9.59700 | 34298 ft | 447 kts | 132° |
| 2026-04-30 18:40 | 49.76315 | 9.62986 | 34522 ft | 447 kts | 132° |
| 2026-04-30 18:40 | 49.74076 | 9.66233 | 34738 ft | 447 kts | 132° |
| 2026-04-30 18:40 | 49.71808 | 9.69519 | 34951 ft | 447 kts | 132° |
| 2026-04-30 18:40 | 49.69543 | 9.72794 | 35157 ft | 447 kts | 132° |
| 2026-04-30 18:41 | 49.67274 | 9.76075 | 35321 ft | 447 kts | 131° |
| 2026-04-30 18:41 | 49.62730 | 9.82639 | 35369 ft | 448 kts | 131° |
| 2026-04-30 18:42 | 49.58160 | 9.89205 | 35358 ft | 448 kts | 131° |
| 2026-04-30 18:42 | 49.51309 | 9.99015 | 35359 ft | 448 kts | 131° |
| 2026-04-30 18:45 | 49.26098 | 10.34798 | 35388 ft | 449 kts | 131° |
| 2026-04-30 18:46 | 49.21099 | 10.40631 | 35397 ft | 458 kts | 143° |
| 2026-04-30 18:46 | 49.15607 | 10.45619 | 35400 ft | 458 kts | 143° |
| 2026-04-30 18:47 | 49.10158 | 10.50562 | 35407 ft | 459 kts | 143° |
| 2026-04-30 18:47 | 49.04676 | 10.55532 | 35413 ft | 459 kts | 143° |
| 2026-04-30 18:48 | 48.99182 | 10.60507 | 35420 ft | 459 kts | 143° |
| 2026-04-30 18:48 | 48.93678 | 10.65482 | 35422 ft | 459 kts | 143° |
| 2026-04-30 18:49 | 48.88548 | 10.71039 | 35418 ft | 447 kts | 129° |
| 2026-04-30 18:49 | 48.84124 | 10.77662 | 35403 ft | 447 kts | 129° |
| 2026-04-30 18:50 | 48.79703 | 10.84305 | 35390 ft | 447 kts | 129° |
| 2026-04-30 18:50 | 48.75276 | 10.90938 | 35369 ft | 447 kts | 128° |
| 2026-04-30 18:51 | 48.70849 | 10.97557 | 35358 ft | 448 kts | 128° |
| 2026-04-30 18:51 | 48.66397 | 11.04181 | 35362 ft | 448 kts | 128° |
| 2026-04-30 18:52 | 48.61939 | 11.10784 | 35362 ft | 449 kts | 129° |
| 2026-04-30 18:52 | 48.57476 | 11.17388 | 35369 ft | 449 kts | 128° |
| 2026-04-30 18:53 | 48.53044 | 11.23940 | 35374 ft | 449 kts | 128° |
| 2026-04-30 18:53 | 48.48573 | 11.30526 | 35378 ft | 449 kts | 128° |
| 2026-04-30 18:54 | 48.44095 | 11.37105 | 35379 ft | 450 kts | 128° |
| 2026-04-30 18:54 | 48.39735 | 11.43491 | 35379 ft | 450 kts | 128° |
| 2026-04-30 18:55 | 48.35245 | 11.50049 | 35379 ft | 450 kts | 128° |
| 2026-04-30 18:55 | 48.28495 | 11.59883 | 35374 ft | 450 kts | 128° |
| 2026-04-30 18:56 | 48.21730 | 11.69699 | 35373 ft | 451 kts | 128° |
| 2026-04-30 18:57 | 48.14989 | 11.79441 | 35376 ft | 451 kts | 128° |
| 2026-04-30 18:57 | 48.10468 | 11.85953 | 35382 ft | 451 kts | 128° |
| 2026-04-30 18:58 | 48.03664 | 11.95718 | 35386 ft | 451 kts | 128° |
| 2026-04-30 18:59 | 47.96855 | 12.05458 | 35386 ft | 452 kts | 128° |
| 2026-04-30 19:00 | 47.87759 | 12.18424 | 35381 ft | 453 kts | 128° |
| 2026-04-30 19:01 | 47.78622 | 12.31360 | 35381 ft | 454 kts | 129° |
| 2026-04-30 19:02 | 47.71747 | 12.41059 | 35367 ft | 455 kts | 129° |
| 2026-04-30 19:03 | 47.62534 | 12.53893 | 35363 ft | 459 kts | 133° |
| 2026-04-30 19:04 | 47.52197 | 12.65299 | 35350 ft | 463 kts | 136° |
| 2026-04-30 19:05 | 47.41793 | 12.76657 | 35349 ft | 465 kts | 137° |
| 2026-04-30 19:06 | 47.31382 | 12.87948 | 35341 ft | 466 kts | 137° |
| 2026-04-30 19:06 | 47.24410 | 12.95481 | 35340 ft | 467 kts | 137° |
| 2026-04-30 19:07 | 47.16526 | 13.03965 | 35336 ft | 468 kts | 137° |
| 2026-04-30 19:08 | 47.05989 | 13.15282 | 35325 ft | 470 kts | 138° |
| 2026-04-30 19:09 | 46.98049 | 13.23749 | 35324 ft | 470 kts | 138° |
| 2026-04-30 19:09 | 46.92781 | 13.29354 | 35327 ft | 471 kts | 138° |
| 2026-04-30 19:10 | 46.82159 | 13.40618 | 35285 ft | 465 kts | 139° |
| 2026-04-30 19:11 | 46.79531 | 13.43394 | 34330 ft | 468 kts | 138° |
| 2026-04-30 19:11 | 46.74277 | 13.48938 | 31977 ft | 463 kts | 138° |
| 2026-04-30 19:11 | 46.71676 | 13.51676 | 30890 ft | 458 kts | 138° |
| 2026-04-30 19:12 | 46.69110 | 13.54371 | 29730 ft | 453 kts | 138° |
| 2026-04-30 19:12 | 46.66560 | 13.57045 | 28486 ft | 449 kts | 139° |
| 2026-04-30 19:12 | 46.64040 | 13.59687 | 27311 ft | 445 kts | 139° |
| 2026-04-30 19:13 | 46.59001 | 13.64969 | 26438 ft | 448 kts | 139° |
| 2026-04-30 19:13 | 46.53934 | 13.70267 | 26355 ft | 450 kts | 139° |
| 2026-04-30 19:13 | 46.51388 | 13.72925 | 26332 ft | 450 kts | 140° |
| 2026-04-30 19:14 | 46.48844 | 13.75581 | 26340 ft | 450 kts | 140° |
| 2026-04-30 19:14 | 46.46299 | 13.78231 | 26344 ft | 450 kts | 140° |
| 2026-04-30 19:14 | 46.43782 | 13.80848 | 26342 ft | 450 kts | 140° |
| 2026-04-30 19:14 | 46.41232 | 13.83496 | 26342 ft | 450 kts | 140° |
| 2026-04-30 19:15 | 46.38677 | 13.86144 | 26345 ft | 451 kts | 140° |
| 2026-04-30 19:15 | 46.33563 | 13.91424 | 26345 ft | 450 kts | 140° |
| 2026-04-30 19:15 | 46.31011 | 13.94057 | 26342 ft | 450 kts | 140° |
| 2026-04-30 19:16 | 46.28455 | 13.96698 | 26342 ft | 450 kts | 141° |
| 2026-04-30 19:16 | 46.25914 | 13.99327 | 26345 ft | 451 kts | 140° |
| 2026-04-30 19:16 | 46.20836 | 14.04575 | 26340 ft | 451 kts | 141° |
| 2026-04-30 19:17 | 46.18247 | 14.07238 | 26342 ft | 451 kts | 141° |
| 2026-04-30 19:17 | 46.13165 | 14.12453 | 26339 ft | 451 kts | 141° |
| 2026-04-30 19:17 | 46.10604 | 14.15074 | 26338 ft | 452 kts | 141° |
| 2026-04-30 19:18 | 46.06330 | 14.19440 | 26340 ft | 452 kts | 141° |
| 2026-04-30 19:18 | 46.02893 | 14.22942 | 26342 ft | 453 kts | 141° |
| 2026-04-30 19:18 | 46.00320 | 14.25562 | 26342 ft | 453 kts | 141° |
| 2026-04-30 19:19 | 45.97737 | 14.28187 | 26343 ft | 454 kts | 141° |
| 2026-04-30 19:19 | 45.95159 | 14.30803 | 26345 ft | 454 kts | 141° |
| 2026-04-30 19:19 | 45.89999 | 14.36040 | 26353 ft | 455 kts | 141° |
| 2026-04-30 19:20 | 45.87411 | 14.38667 | 26353 ft | 455 kts | 141° |
| 2026-04-30 19:20 | 45.84864 | 14.41251 | 26349 ft | 455 kts | 141° |
| 2026-04-30 19:20 | 45.79691 | 14.46484 | 26354 ft | 455 kts | 142° |
| 2026-04-30 19:21 | 45.77100 | 14.49095 | 26352 ft | 455 kts | 142° |
| 2026-04-30 19:21 | 45.71924 | 14.54303 | 26351 ft | 455 kts | 139° |
| 2026-04-30 19:22 | 45.66751 | 14.59515 | 26351 ft | 454 kts | 142° |
| 2026-04-30 19:22 | 45.59049 | 14.67214 | 26353 ft | 455 kts | 142° |
| 2026-04-30 19:23 | 45.51248 | 14.74919 | 26349 ft | 455 kts | 144° |
| 2026-04-30 19:24 | 45.45800 | 14.79574 | 26338 ft | 457 kts | 148° |
| 2026-04-30 19:24 | 45.43054 | 14.81742 | 26331 ft | 457 kts | 149° |
| 2026-04-30 19:24 | 45.37484 | 14.86118 | 26316 ft | 457 kts | 148° |
| 2026-04-30 19:25 | 45.29208 | 14.92836 | 26314 ft | 456 kts | 148° |
| 2026-04-30 19:26 | 45.23709 | 14.97358 | 26328 ft | 456 kts | 148° |
| 2026-04-30 19:26 | 45.18196 | 15.01859 | 26338 ft | 456 kts | 148° |
| 2026-04-30 19:26 | 45.15473 | 15.04067 | 26340 ft | 456 kts | 148° |
| 2026-04-30 19:27 | 45.09959 | 15.08523 | 26352 ft | 457 kts | 148° |
| 2026-04-30 19:27 | 45.04446 | 15.12990 | 26351 ft | 456 kts | 148° |
| 2026-04-30 19:28 | 45.01689 | 15.15219 | 26348 ft | 456 kts | 148° |
| 2026-04-30 19:28 | 44.96184 | 15.19663 | 26346 ft | 455 kts | 148° |
| 2026-04-30 19:29 | 44.90673 | 15.24098 | 26339 ft | 455 kts | 149° |
| 2026-04-30 19:29 | 44.87927 | 15.26302 | 26336 ft | 455 kts | 149° |
| 2026-04-30 19:30 | 44.79701 | 15.32893 | 25882 ft | 452 kts | 149° |
| 2026-04-30 19:30 | 44.74246 | 15.37251 | 25384 ft | 449 kts | 149° |
| 2026-04-30 19:31 | 44.68831 | 15.41570 | 24893 ft | 446 kts | 149° |
| 2026-04-30 19:31 | 44.66138 | 15.43715 | 24651 ft | 444 kts | 149° |
| 2026-04-30 19:31 | 44.60773 | 15.47977 | 24173 ft | 441 kts | 149° |
| 2026-04-30 19:32 | 44.58108 | 15.50089 | 23933 ft | 440 kts | 149° |
| 2026-04-30 19:32 | 44.55441 | 15.52199 | 23660 ft | 438 kts | 149° |
| 2026-04-30 19:32 | 44.52795 | 15.54291 | 23377 ft | 436 kts | 149° |
| 2026-04-30 19:32 | 44.50155 | 15.56378 | 23095 ft | 434 kts | 149° |
| 2026-04-30 19:33 | 44.47530 | 15.58451 | 22812 ft | 432 kts | 149° |
| 2026-04-30 19:33 | 44.44914 | 15.60520 | 22545 ft | 431 kts | 149° |
| 2026-04-30 19:33 | 44.42335 | 15.62557 | 22281 ft | 430 kts | 149° |
| 2026-04-30 19:33 | 44.39738 | 15.64607 | 22008 ft | 429 kts | 149° |
| 2026-04-30 19:34 | 44.37134 | 15.66657 | 21741 ft | 428 kts | 149° |
| 2026-04-30 19:34 | 44.34546 | 15.68691 | 21476 ft | 427 kts | 149° |
| 2026-04-30 19:34 | 44.29308 | 15.72801 | 19609 ft | 440 kts | 149° |
| 2026-04-30 19:35 | 44.26640 | 15.74891 | 18636 ft | 435 kts | 149° |
| 2026-04-30 19:35 | 44.24031 | 15.76925 | 17534 ft | 426 kts | 149° |
| 2026-04-30 19:35 | 44.21456 | 15.78933 | 16439 ft | 419 kts | 149° |
| 2026-04-30 19:35 | 44.18934 | 15.80903 | 15392 ft | 412 kts | 149° |
| 2026-04-30 19:36 | 44.16457 | 15.82841 | 14389 ft | 406 kts | 149° |
| 2026-04-30 19:36 | 44.14011 | 15.84751 | 13305 ft | 399 kts | 149° |
| 2026-04-30 19:36 | 44.09223 | 15.88338 | 11185 ft | 386 kts | 151° |
| 2026-04-30 19:37 | 44.06854 | 15.90017 | 10180 ft | 378 kts | 152° |
| 2026-04-30 19:37 | 44.04538 | 15.91639 | 9383 ft | 364 kts | 152° |
| 2026-04-30 19:37 | 44.02356 | 15.93163 | 9139 ft | 336 kts | 152° |
| 2026-04-30 19:37 | 44.00346 | 15.94573 | 9012 ft | 309 kts | 151° |
| 2026-04-30 19:38 | 43.98479 | 15.95895 | 9026 ft | 298 kts | 151° |
| 2026-04-30 19:38 | 43.96649 | 15.97204 | 9020 ft | 295 kts | 150° |
| 2026-04-30 19:38 | 43.94828 | 15.98512 | 9019 ft | 295 kts | 151° |
| 2026-04-30 19:38 | 43.93004 | 15.99821 | 9023 ft | 295 kts | 151° |
| 2026-04-30 19:39 | 43.91189 | 16.01121 | 9012 ft | 294 kts | 151° |
| 2026-04-30 19:39 | 43.89361 | 16.02418 | 9011 ft | 294 kts | 153° |
| 2026-04-30 19:39 | 43.87438 | 16.03363 | 9011 ft | 294 kts | 167° |
| 2026-04-30 19:39 | 43.85401 | 16.03698 | 9012 ft | 295 kts | 180° |
| 2026-04-30 19:40 | 43.83365 | 16.03417 | 9015 ft | 295 kts | 191° |
| 2026-04-30 19:40 | 43.81363 | 16.02882 | 9009 ft | 295 kts | 191° |
| 2026-04-30 19:40 | 43.79347 | 16.02350 | 9003 ft | 296 kts | 191° |
| 2026-04-30 19:40 | 43.77319 | 16.01821 | 8952 ft | 296 kts | 191° |
| 2026-04-30 19:41 | 43.75297 | 16.01295 | 8812 ft | 296 kts | 191° |
| 2026-04-30 19:41 | 43.73277 | 16.00769 | 8648 ft | 296 kts | 191° |
| 2026-04-30 19:41 | 43.71251 | 16.00241 | 8233 ft | 295 kts | 191° |
| 2026-04-30 19:41 | 43.69236 | 15.99715 | 7823 ft | 294 kts | 191° |
| 2026-04-30 19:42 | 43.67256 | 15.99200 | 7425 ft | 293 kts | 191° |
| 2026-04-30 19:42 | 43.65261 | 15.98682 | 7032 ft | 291 kts | 191° |
| 2026-04-30 19:42 | 43.63245 | 15.98158 | 6625 ft | 289 kts | 191° |
| 2026-04-30 19:42 | 43.61315 | 15.97657 | 6207 ft | 282 kts | 191° |
| 2026-04-30 19:43 | 43.59387 | 15.97156 | 5798 ft | 281 kts | 191° |
| 2026-04-30 19:43 | 43.57470 | 15.96655 | 5389 ft | 280 kts | 191° |
| 2026-04-30 19:43 | 43.55566 | 15.96163 | 4979 ft | 278 kts | 190° |
| 2026-04-30 19:44 | 43.51799 | 15.95185 | 4146 ft | 273 kts | 189° |
| 2026-04-30 19:44 | 43.49970 | 15.94535 | 3991 ft | 271 kts | 200° |
| 2026-04-30 19:44 | 43.48287 | 15.93327 | 4004 ft | 274 kts | 214° |
| 2026-04-30 19:44 | 43.46842 | 15.91611 | 4007 ft | 274 kts | 226° |
| 2026-04-30 19:45 | 43.45513 | 15.89720 | 4005 ft | 274 kts | 226° |
| 2026-04-30 19:45 | 43.44180 | 15.87844 | 4002 ft | 274 kts | 225° |
| 2026-04-30 19:45 | 43.42838 | 15.85965 | 3929 ft | 275 kts | 225° |
| 2026-04-30 19:45 | 43.41500 | 15.84091 | 3796 ft | 274 kts | 225° |
| 2026-04-30 19:46 | 43.40186 | 15.82246 | 3669 ft | 273 kts | 225° |
| 2026-04-30 19:46 | 43.38857 | 15.80378 | 3550 ft | 274 kts | 225° |
| 2026-04-30 19:46 | 43.37521 | 15.78502 | 3432 ft | 274 kts | 225° |
| 2026-04-30 19:46 | 43.36186 | 15.76626 | 3286 ft | 274 kts | 225° |
| 2026-04-30 19:47 | 43.34848 | 15.74750 | 3166 ft | 275 kts | 225° |
| 2026-04-30 19:47 | 43.33923 | 15.73557 | 3081 ft | 275 kts | 215° |
| 2026-04-30 19:47 | 43.31596 | 15.72339 | 3003 ft | 269 kts | 180° |
| 2026-04-30 19:47 | 43.29771 | 15.72674 | 3008 ft | 263 kts | 155° |
| 2026-04-30 19:48 | 43.28260 | 15.73944 | 3008 ft | 256 kts | 133° |
| 2026-04-30 19:48 | 43.26971 | 15.75675 | 3001 ft | 256 kts | 131° |
| 2026-04-30 19:48 | 43.25734 | 15.77381 | 2992 ft | 255 kts | 126° |
| 2026-04-30 19:48 | 43.24893 | 15.79458 | 3005 ft | 248 kts | 102° |
| 2026-04-30 19:49 | 43.24751 | 15.81770 | 3001 ft | 242 kts | 79° |
| 2026-04-30 19:49 | 43.26362 | 15.85680 | 2999 ft | 242 kts | 46° |
| 2026-04-30 19:49 | 43.27552 | 15.87326 | 3007 ft | 243 kts | 46° |
| 2026-04-30 19:50 | 43.28739 | 15.88980 | 2994 ft | 244 kts | 46° |
| 2026-04-30 19:50 | 43.29540 | 15.90100 | 3007 ft | 243 kts | 46° |
| 2026-04-30 19:50 | 43.30724 | 15.91757 | 3004 ft | 244 kts | 47° |
| 2026-04-30 19:50 | 43.31907 | 15.93418 | 3000 ft | 243 kts | 47° |
| 2026-04-30 19:51 | 43.33070 | 15.95084 | 2999 ft | 237 kts | 47° |
| 2026-04-30 19:51 | 43.34160 | 15.96660 | 2997 ft | 218 kts | 47° |
| 2026-04-30 19:51 | 43.35151 | 15.98098 | 2999 ft | 201 kts | 48° |
| 2026-04-30 19:51 | 43.36055 | 15.99407 | 3025 ft | 176 kts | 48° |
| 2026-04-30 19:52 | 43.36843 | 16.00548 | 2990 ft | 153 kts | 48° |
| 2026-04-30 19:52 | 43.37554 | 16.01578 | 3000 ft | 144 kts | 48° |
| 2026-04-30 19:52 | 43.38236 | 16.02549 | 3009 ft | 140 kts | 44° |
| 2026-04-30 19:52 | 43.38954 | 16.03450 | 3004 ft | 138 kts | 47° |
| 2026-04-30 19:53 | 43.39604 | 16.04420 | 3003 ft | 137 kts | 50° |
| 2026-04-30 19:53 | 43.40214 | 16.05417 | 3001 ft | 138 kts | 52° |
| 2026-04-30 19:53 | 43.40816 | 16.06446 | 3003 ft | 137 kts | 53° |
| 2026-04-30 19:53 | 43.41406 | 16.07475 | 3004 ft | 138 kts | 52° |
| 2026-04-30 19:54 | 43.41992 | 16.08509 | 3008 ft | 137 kts | 53° |
| 2026-04-30 19:54 | 43.42581 | 16.09553 | 3003 ft | 137 kts | 53° |
| 2026-04-30 19:54 | 43.43164 | 16.10591 | 3002 ft | 137 kts | 53° |
| 2026-04-30 19:54 | 43.43744 | 16.11625 | 3004 ft | 137 kts | 53° |
| 2026-04-30 19:55 | 43.44326 | 16.12662 | 2918 ft | 137 kts | 53° |
| 2026-04-30 19:55 | 43.44905 | 16.13697 | 2783 ft | 137 kts | 53° |
| 2026-04-30 19:55 | 43.45484 | 16.14731 | 2601 ft | 136 kts | 52° |
| 2026-04-30 19:55 | 43.46059 | 16.15758 | 2433 ft | 135 kts | 53° |
| 2026-04-30 19:56 | 43.46627 | 16.16772 | 2253 ft | 133 kts | 53° |
| 2026-04-30 19:56 | 43.47193 | 16.17785 | 2068 ft | 133 kts | 54° |
| 2026-04-30 19:56 | 43.47756 | 16.18793 | 1897 ft | 133 kts | 53° |
| 2026-04-30 19:56 | 43.48322 | 16.19804 | 1718 ft | 133 kts | 53° |
| 2026-04-30 19:57 | 43.48885 | 16.20812 | 1521 ft | 132 kts | 53° |
| 2026-04-30 19:57 | 43.49455 | 16.21834 | 1355 ft | 137 kts | 53° |
| 2026-04-30 19:57 | 43.50027 | 16.22857 | 1156 ft | 134 kts | 52° |
| 2026-04-30 19:57 | 43.50594 | 16.23873 | 967 ft | 134 kts | 52° |
| 2026-04-30 19:58 | 43.51156 | 16.24881 | 778 ft | 132 kts | 52° |
| 2026-04-30 19:58 | 43.51717 | 16.25886 | 603 ft | 132 kts | 52° |
| 2026-04-30 19:58 | 43.52288 | 16.26882 | 436 ft | 131 kts | 53° |
| 2026-04-30 19:58 | 43.52836 | 16.27878 | 256 ft | 133 kts | 51° |
| 2026-04-30 19:59 | 43.53392 | 16.28890 | 91 ft | 129 kts | 53° |
| 2026-04-30 19:59 | 43.53799 | 16.29629 | 82 ft | 57 kts | 53° |
| 2026-04-30 19:59 | 43.54024 | 16.30035 | 68 ft | 29 kts | 45° |
| 2026-04-30 20:00 | 43.54033 | 16.30113 | 67 ft | 4 kts | 163° |
| 2026-04-30 20:00 | 43.53980 | 16.30090 | 71 ft | 10 kts | 199° |
| 2026-04-30 20:00 | 43.53905 | 16.30053 | 66 ft | 12 kts | 200° |
| 2026-04-30 20:00 | 43.53856 | 16.29978 | 68 ft | 10 kts | 234° |
| 2026-04-30 20:01 | 43.53781 | 16.29841 | 66 ft | 8 kts | 234° |
| 2026-04-30 20:01 | 43.53744 | 16.29771 | 64 ft | 12 kts | 234° |
| 2026-04-30 20:01 | 43.53698 | 16.29684 | 68 ft | 11 kts | 234° |
| 2026-04-30 20:02 | 43.53624 | 16.29615 | 67 ft | 4 kts | 95° |
| 2026-04-30 20:02 | 43.53622 | 16.29658 | 68 ft | 6 kts | 93° |
| 2026-04-30 20:03 | 43.53622 | 16.29661 | 68 ft | 0 kts | 93° |